Time;durP1;ratioP1;P1;durP2;ratioP2;P2;SDS_P1;SDS_P2;PMS_P1;PMS_P2;Temp;Humidity;BMP_temperature;BMP_pressure;BME280_temperature;BME280_humidity;BME280_pressure;Samples;Min_cycle;Max_cycle;Signal;HPM_P1;HPM_P2
2023/11/13 00:07:42;;;;;;;14.20;11.30;;;;;;;3.51;100.00;98827.75;435883;1253;139782;-68
2023/11/13 00:17:48;;;;;;;16.70;12.90;;;;;;;3.48;100.00;98832.19;435705;1253;139079;-68
2023/11/13 00:27:55;;;;;;;17.20;12.90;;;;;;;3.49;100.00;98833.22;436095;1251;139040;-67
2023/11/13 00:38:01;;;;;;;17.60;13.00;;;;;;;3.47;100.00;98840.20;435792;1254;139456;-67
2023/11/13 00:48:07;;;;;;;22.60;14.00;;;;;;;3.47;100.00;98839.51;436099;1249;139450;-68
2023/11/13 00:58:13;;;;;;;17.10;14.10;;;;;;;3.46;100.00;98849.11;435627;1251;139476;-67
2023/11/13 01:08:20;;;;;;;18.40;14.10;;;;;;;3.44;100.00;98853.68;435987;1254;138955;-67
2023/11/13 01:18:26;;;;;;;16.70;14.40;;;;;;;3.43;100.00;98851.84;435840;1250;139445;-66
2023/11/13 01:28:32;;;;;;;20.80;16.40;;;;;;;3.39;100.00;98847.66;436291;1251;140539;-68
2023/11/13 01:38:39;;;;;;;15.40;12.90;;;;;;;3.36;100.00;98848.85;435730;1250;138822;-68
2023/11/13 01:48:45;;;;;;;15.70;13.30;;;;;;;3.35;100.00;98844.41;435738;1253;139119;-68
2023/11/13 01:58:52;;;;;;;15.40;12.80;;;;;;;3.34;100.00;98842.73;435772;1253;139663;-68
2023/11/13 02:08:58;;;;;;;15.40;12.10;;;;;;;3.34;100.00;98846.52;436425;1249;139750;-68
2023/11/13 02:19:04;;;;;;;14.80;11.70;;;;;;;3.35;100.00;98840.58;435628;1254;140053;-67
2023/11/13 02:29:10;;;;;;;13.00;11.20;;;;;;;3.38;100.00;98837.89;435919;1253;140000;-69
2023/11/13 02:39:17;;;;;;;13.80;10.80;;;;;;;3.40;100.00;98845.75;435720;1254;139229;-68
2023/11/13 02:49:24;;;;;;;11.80;10.50;;;;;;;3.42;100.00;98845.63;435525;1250;140615;-68
2023/11/13 02:59:30;;;;;;;12.10;10.80;;;;;;;3.43;100.00;98854.59;436503;1250;139398;-68
2023/11/13 03:09:36;;;;;;;12.30;10.20;;;;;;;3.44;100.00;98850.92;435809;1251;139395;-67
2023/11/13 03:19:43;;;;;;;14.60;9.70;;;;;;;3.45;100.00;98851.56;435863;1251;138902;-68
2023/11/13 03:29:49;;;;;;;10.50;8.10;;;;;;;3.43;100.00;98845.09;436854;1249;139154;-68
2023/11/13 03:39:55;;;;;;;10.60;9.50;;;;;;;3.40;100.00;98845.23;435684;1254;139112;-68
2023/11/13 03:50:01;;;;;;;10.50;8.80;;;;;;;3.34;100.00;98853.10;435578;1250;138977;-68
2023/11/13 04:00:10;;;;;;;12.30;9.00;;;;;;;3.29;100.00;98844.84;435758;1251;139875;-67
2023/11/13 04:10:17;;;;;;;12.60;10.60;;;;;;;3.26;100.00;98846.55;436328;1254;138926;-68
2023/11/13 04:20:24;;;;;;;11.60;10.20;;;;;;;3.22;100.00;98847.60;436218;1250;139348;-69
2023/11/13 04:30:33;;;;;;;15.20;11.60;;;;;;;3.16;100.00;98845.27;437389;1250;140093;-69
2023/11/13 04:40:40;;;;;;;13.50;10.70;;;;;;;3.12;100.00;98856.17;436716;1250;139437;-69
2023/11/13 04:50:47;;;;;;;14.90;12.00;;;;;;;3.08;100.00;98856.15;436196;1250;138908;-69
2023/11/13 05:00:53;;;;;;;16.50;11.60;;;;;;;3.06;100.00;98858.31;436597;1250;139375;-69
2023/11/13 05:11:00;;;;;;;14.50;12.70;;;;;;;3.03;100.00;98863.84;437486;1250;140385;-69
2023/11/13 05:21:06;;;;;;;17.80;12.70;;;;;;;2.96;100.00;98877.29;436764;1252;139019;-69
2023/11/13 05:31:14;;;;;;;19.30;14.50;;;;;;;2.89;100.00;98892.63;436281;1250;138959;-67
2023/11/13 05:41:21;;;;;;;15.70;12.60;;;;;;;2.84;100.00;98900.79;435842;1251;140829;-68
2023/11/13 05:51:27;;;;;;;15.60;13.90;;;;;;;2.75;100.00;98902.55;435652;1254;140731;-68
2023/11/13 06:01:33;;;;;;;16.00;13.20;;;;;;;2.58;100.00;98901.20;435521;1251;141657;-67
2023/11/13 06:11:39;;;;;;;17.20;12.10;;;;;;;2.36;100.00;98896.56;435434;1254;139402;-68
2023/11/13 06:21:46;;;;;;;15.90;13.80;;;;;;;2.24;100.00;98900.34;435518;1253;139388;-69
2023/11/13 06:31:53;;;;;;;17.30;15.40;;;;;;;2.17;100.00;98918.42;435643;1253;139453;-67
2023/11/13 06:41:59;;;;;;;16.70;13.60;;;;;;;2.15;100.00;98927.98;435628;1254;140125;-68
2023/11/13 06:52:07;;;;;;;19.00;16.00;;;;;;;2.23;100.00;98938.05;435387;1251;139350;-69
2023/11/13 07:02:15;;;;;;;16.00;14.30;;;;;;;3.51;100.00;98937.89;435882;1254;139415;-66
2023/11/13 07:12:21;;;;;;;12.90;11.30;;;;;;;6.62;100.00;98936.33;439240;1254;139430;-73
2023/11/13 07:22:31;;;;;;;12.30;10.60;;;;;;;9.70;100.00;98930.73;441208;1250;139146;-73
2023/11/13 07:32:37;;;;;;;10.40;8.00;;;;;;;12.20;100.00;98931.70;439975;1250;139263;-71
2023/11/13 07:42:44;;;;;;;8.90;8.00;;;;;;;13.63;98.82;98929.52;438398;1250;138647;-73
2023/11/13 07:52:51;;;;;;;11.50;8.50;;;;;;;13.31;95.93;98937.83;439404;1250;139011;-66
2023/11/13 08:02:57;;;;;;;8.00;7.10;;;;;;;14.89;94.18;98949.11;436252;1251;138445;-77
2023/11/13 08:13:03;;;;;;;7.60;6.80;;;;;;;16.04;89.80;98958.02;439679;1251;137929;-74
2023/11/13 08:23:10;;;;;;;9.10;8.10;;;;;;;15.37;85.60;98960.58;439403;1249;137975;-69
2023/11/13 08:33:16;;;;;;;7.90;7.30;;;;;;;16.11;87.05;98953.20;436656;1250;139682;-73
2023/11/13 08:43:25;;;;;;;7.60;6.70;;;;;;;16.96;81.51;98949.73;439978;1250;138903;-75
2023/11/13 08:53:32;;;;;;;8.20;6.90;;;;;;;14.93;80.14;98949.69;439609;1253;138119;-71
2023/11/13 09:03:39;;;;;;;20.00;7.10;;;;;;;13.45;78.83;98954.53;439555;1250;138070;-64
2023/11/13 09:13:46;;;;;;;10.50;9.10;;;;;;;11.48;79.03;98962.38;436430;1254;138169;-73
2023/11/13 09:23:53;;;;;;;10.00;8.20;;;;;;;10.03;80.87;98964.77;436213;1250;138474;-61
2023/11/13 09:33:59;;;;;;;13.90;9.40;;;;;;;9.36;82.36;98967.33;435846;1253;138221;-62
2023/11/13 09:44:08;;;;;;;10.20;8.00;;;;;;;8.80;83.72;98966.17;436545;1253;139250;-68
2023/11/13 09:54:17;;;;;;;9.00;7.50;;;;;;;8.44;85.06;98966.59;436323;1253;138634;-69
2023/11/13 10:04:23;;;;;;;9.80;8.60;;;;;;;8.52;85.49;98968.01;436134;1254;138464;-71
2023/11/13 10:14:30;;;;;;;13.60;7.50;;;;;;;8.44;85.97;98963.06;437931;1250;139217;-76
2023/11/13 10:24:37;;;;;;;7.30;6.50;;;;;;;8.66;85.97;98959.20;439662;1250;138103;-70
2023/11/13 10:34:53;;;;;;;9.30;6.40;;;;;;;8.58;85.70;98959.61;439115;1253;137982;-78
2023/11/13 10:45:01;;;;;;;12.70;6.40;;;;;;;8.55;85.82;98946.33;439319;1253;137720;-77
2023/11/13 10:55:08;;;;;;;6.30;5.30;;;;;;;8.23;85.22;98943.69;439643;1251;138040;-70
2023/11/13 11:05:22;;;;;;;8.80;6.80;;;;;;;7.76;85.38;98937.71;439278;1254;138350;-67
2023/11/13 11:16:04;;;;;;;8.70;6.10;;;;;;;7.40;86.35;98941.17;438599;1253;138754;-71
2023/11/13 11:26:10;;;;;;;8.70;6.80;;;;;;;7.17;86.77;98940.64;438788;1255;138784;-78
2023/11/13 11:36:19;;;;;;;9.50;6.20;;;;;;;7.10;87.43;98916.65;438832;1253;138313;-64
2023/11/13 11:46:26;;;;;;;8.60;7.80;;;;;;;7.09;87.88;98913.08;436116;1253;140024;-65
2023/11/13 11:56:32;;;;;;;9.70;7.30;;;;;;;7.07;88.13;98908.86;436077;1252;183907;-66
2023/11/13 12:06:40;;;;;;;8.40;6.60;;;;;;;6.95;87.93;98900.52;435835;1248;139558;-66
2023/11/13 12:16:44;;;;;;;;;;;;;;;6.65;88.05;98898.11;436351;1255;139165;-67
2023/11/13 12:26:56;;;;;;;9.20;6.30;;;;;;;6.36;88.59;98902.02;434994;1253;125552;-66
2023/11/13 12:37:02;;;;;;;8.00;6.60;;;;;;;6.25;89.36;98887.02;435554;1253;138831;-62
2023/11/13 12:47:11;;;;;;;7.40;5.10;;;;;;;6.51;90.01;98872.44;437771;1251;138570;-63
2023/11/13 12:57:18;;;;;;;6.90;4.40;;;;;;;6.79;89.22;98871.52;435840;1255;138818;-66
2023/11/13 13:07:25;;;;;;;7.00;3.60;;;;;;;6.85;88.26;98876.95;435319;1255;138902;-72
2023/11/13 13:17:32;;;;;;;8.60;5.10;;;;;;;6.87;87.20;98873.66;436186;1253;138929;-67
2023/11/13 13:27:39;;;;;;;5.30;3.70;;;;;;;6.83;86.64;98874.95;436140;1253;140987;-65
2023/11/13 13:37:44;;;;;;;;;;;;;;;6.77;86.10;98875.80;436133;1253;138338;-64
2023/11/13 13:47:51;;;;;;;5.10;3.10;;;;;;;6.72;85.65;98861.52;436183;1254;125207;-64
2023/11/13 13:58:00;;;;;;;6.30;2.90;;;;;;;6.69;85.25;98849.48;436563;1253;138977;-65
2023/11/13 14:08:14;;;;;;;4.70;3.70;;;;;;;6.59;84.75;98844.70;435925;1253;138445;-67
2023/11/13 14:18:24;;;;;;;11.50;5.10;;;;;;;6.35;84.31;98841.05;435230;1255;139649;-65
2023/11/13 14:28:31;;;;;;;12.50;4.70;;;;;;;6.06;84.72;98828.98;435817;1255;138852;-66
2023/11/13 14:38:39;;;;;;;15.00;7.40;;;;;;;5.73;84.95;98822.30;435270;1255;138762;-66
2023/11/13 14:48:45;;;;;;;15.10;7.70;;;;;;;5.27;85.13;98826.88;435252;1255;139546;-65
2023/11/13 14:58:52;;;;;;;22.00;11.40;;;;;;;4.78;85.47;98822.88;435957;1251;138734;-74
2023/11/13 15:08:58;;;;;;;31.40;17.50;;;;;;;4.28;86.36;98821.46;439211;1255;139711;-73
2023/11/13 15:19:05;;;;;;;28.20;16.40;;;;;;;3.77;87.20;98818.71;437722;1256;139006;-70
2023/11/13 15:29:10;;;;;;;;;;;;;;;3.31;88.18;98811.00;438417;1255;138854;-63
2023/11/13 15:39:17;;;;;;;43.80;27.40;;;;;;;2.95;88.49;98811.08;436143;1255;124799;-64
2023/11/13 15:49:23;;;;;;;31.90;22.90;;;;;;;2.65;89.25;98795.12;435338;1256;139536;-62
2023/11/13 15:59:29;;;;;;;30.00;22.70;;;;;;;2.45;89.81;98784.60;435508;1255;140295;-63
2023/11/13 16:09:36;;;;;;;31.10;21.90;;;;;;;2.29;90.14;98768.19;435199;1256;138735;-63
2023/11/13 16:19:42;;;;;;;28.80;19.40;;;;;;;2.11;90.60;98757.36;435741;1253;138608;-64
2023/11/13 16:29:53;;;;;;;27.90;20.10;;;;;;;1.99;91.02;98743.38;435528;1254;140037;-63
2023/11/13 16:39:59;;;;;;;24.00;18.90;;;;;;;1.89;90.96;98730.17;435622;1254;140301;-64
2023/11/13 16:50:08;;;;;;;24.80;19.30;;;;;;;1.77;91.11;98722.73;436806;1253;139150;-64
2023/11/13 17:00:19;;;;;;;31.60;22.60;;;;;;;1.62;91.29;98713.83;436389;1251;139666;-69
2023/11/13 17:10:27;;;;;;;39.50;28.50;;;;;;;1.44;91.43;98705.25;436191;1254;138972;-70
2023/11/13 17:20:39;;;;;;;47.20;29.40;;;;;;;1.17;91.68;98713.39;437041;1251;139016;-69
2023/11/13 17:30:46;;;;;;;42.00;29.60;;;;;;;1.00;92.11;98711.63;436567;1251;138804;-70
2023/11/13 17:40:52;;;;;;;43.40;30.60;;;;;;;0.83;92.39;98705.71;435918;1252;140911;-70
2023/11/13 17:50:58;;;;;;;41.00;29.90;;;;;;;0.65;92.71;98688.48;436209;1254;138831;-69
2023/11/13 18:01:05;;;;;;;41.90;30.30;;;;;;;0.51;92.77;98681.63;437013;1251;139805;-70
2023/11/13 18:11:12;;;;;;;40.10;28.10;;;;;;;0.41;92.98;98662.86;436424;1253;139046;-70
2023/11/13 18:21:19;;;;;;;32.00;23.10;;;;;;;0.40;93.42;98620.02;439863;1251;138764;-70
2023/11/13 18:31:25;;;;;;;38.80;27.40;;;;;;;0.44;93.49;98597.14;439300;1251;139197;-69
2023/11/13 18:41:31;;;;;;;41.70;28.30;;;;;;;0.34;93.33;98604.92;436410;1251;139037;-72
2023/11/13 18:51:38;;;;;;;37.50;27.90;;;;;;;0.20;93.51;98592.19;438980;1251;139118;-72
2023/11/13 19:01:43;;;;;;;;;;;;;;;0.13;93.81;98572.63;439263;1251;138738;-73
2023/11/13 19:11:49;;;;;;;46.60;31.40;;;;;;;0.08;93.96;98564.76;439088;1252;125360;-66
2023/11/13 19:21:57;;;;;;;35.80;25.50;;;;;;;0.16;94.38;98517.11;435990;1251;139122;-67
2023/11/13 19:32:04;;;;;;;41.00;31.00;;;;;;;0.46;94.37;98505.45;435932;1253;138780;-67
2023/11/13 19:42:11;;;;;;;38.10;24.10;;;;;;;0.68;94.32;98504.24;435704;1251;138795;-67
2023/11/13 19:52:18;;;;;;;35.00;22.50;;;;;;;0.87;94.17;98499.84;435627;1251;138868;-67
2023/11/13 20:02:26;;;;;;;23.10;18.10;;;;;;;1.06;94.01;98478.71;436755;1251;138849;-66
2023/11/13 20:12:32;;;;;;;24.30;18.20;;;;;;;1.27;93.90;98480.59;436053;1251;140116;-67
2023/11/13 20:22:39;;;;;;;27.60;19.00;;;;;;;1.40;93.87;98447.75;436169;1250;139175;-67
2023/11/13 20:32:45;;;;;;;26.30;17.40;;;;;;;1.50;93.66;98407.48;435984;1250;138756;-67
2023/11/13 20:42:52;;;;;;;24.00;17.50;;;;;;;1.59;93.88;98345.64;436001;1251;139137;-68
2023/11/13 20:52:56;;;;;;;;;;;;;;;1.64;93.90;98318.67;439214;1253;139514;-68
2023/11/13 21:03:03;;;;;;;20.70;14.70;;;;;;;1.65;93.93;98295.67;437739;1253;126177;-68
2023/11/13 21:13:10;;;;;;;21.30;15.00;;;;;;;1.72;94.11;98260.32;436740;1251;139215;-68
2023/11/13 21:23:18;;;;;;;17.30;11.30;;;;;;;1.91;94.20;98255.95;439091;1253;140006;-67
2023/11/13 21:33:24;;;;;;;20.60;14.10;;;;;;;2.17;94.23;98208.89;439351;1250;138571;-68
2023/11/13 21:43:31;;;;;;;18.30;12.20;;;;;;;2.38;93.87;98147.34;438631;1253;140150;-67
2023/11/13 21:53:38;;;;;;;15.90;11.40;;;;;;;2.55;93.67;98115.70;436680;1254;139842;-67
2023/11/13 22:03:44;;;;;;;21.60;13.50;;;;;;;2.68;93.44;98099.11;436440;1251;139939;-67
2023/11/13 22:13:51;;;;;;;14.30;11.40;;;;;;;2.79;93.31;98071.03;437634;1250;139577;-68
2023/11/13 22:23:58;;;;;;;15.80;11.90;;;;;;;2.90;93.07;98080.98;439331;1250;140171;-67
2023/11/13 22:34:04;;;;;;;14.10;10.80;;;;;;;3.02;93.41;98106.76;436024;1251;139680;-66
2023/11/13 22:44:11;;;;;;;16.90;12.40;;;;;;;3.14;94.19;98090.01;436545;1249;139507;-67
2023/11/13 22:54:17;;;;;;;13.80;11.10;;;;;;;3.27;95.58;98023.00;435952;1253;139810;-67
2023/11/13 23:04:24;;;;;;;13.70;10.60;;;;;;;3.31;97.17;97994.23;435752;1250;139605;-68
2023/11/13 23:14:30;;;;;;;13.80;11.30;;;;;;;3.25;97.95;97970.22;436283;1250;138927;-67
2023/11/13 23:24:37;;;;;;;17.60;11.50;;;;;;;3.14;98.64;97965.34;436986;1249;139494;-67
2023/11/13 23:34:43;;;;;;;14.20;11.70;;;;;;;3.04;99.49;97948.93;438869;1250;140314;-66
2023/11/13 23:44:50;;;;;;;16.20;11.10;;;;;;;2.91;99.96;97915.70;436286;1251;139539;-67
2023/11/13 23:54:56;;;;;;;12.40;11.10;;;;;;;2.84;100.00;97918.85;435686;1253;145585;-67
